地図

経路データ

SID SEASON NUMBER BASIN SUBBASIN NAME ISO_TIME NATURE LAT LON WMO_WIND WMO_PRES WMO_AGENCY TRACK_TYPE DIST2LAND LANDFALL IFLAG USA_AGENCY USA_ATCF_ID USA_LAT USA_LON USA_RECORD USA_STATUS USA_WIND USA_PRES USA_SSHS USA_R34_NE USA_R34_SE USA_R34_SW USA_R34_NW USA_R50_NE USA_R50_SE USA_R50_SW USA_R50_NW USA_R64_NE USA_R64_SE USA_R64_SW USA_R64_NW USA_POCI USA_ROCI USA_RMW USA_EYE TOKYO_LAT TOKYO_LON TOKYO_GRADE TOKYO_WIND TOKYO_PRES TOKYO_R50_DIR TOKYO_R50_LONG TOKYO_R50_SHORT TOKYO_R30_DIR TOKYO_R30_LONG TOKYO_R30_SHORT TOKYO_LAND CMA_LAT CMA_LON CMA_CAT CMA_WIND CMA_PRES HKO_LAT HKO_LON HKO_CAT HKO_WIND HKO_PRES NEWDELHI_LAT NEWDELHI_LON NEWDELHI_GRADE NEWDELHI_WIND NEWDELHI_PRES NEWDELHI_CI NEWDELHI_DP NEWDELHI_POCI REUNION_LAT REUNION_LON REUNION_TYPE REUNION_WIND REUNION_PRES REUNION_TNUM REUNION_CI REUNION_RMW REUNION_R34_NE REUNION_R34_SE REUNION_R34_SW REUNION_R34_NW REUNION_R50_NE REUNION_R50_SE REUNION_R50_SW REUNION_R50_NW REUNION_R64_NE REUNION_R64_SE REUNION_R64_SW REUNION_R64_NW BOM_LAT BOM_LON BOM_TYPE BOM_WIND BOM_PRES BOM_TNUM BOM_CI BOM_RMW BOM_R34_NE BOM_R34_SE BOM_R34_SW BOM_R34_NW BOM_R50_NE BOM_R50_SE BOM_R50_SW BOM_R50_NW BOM_R64_NE BOM_R64_SE BOM_R64_SW BOM_R64_NW BOM_ROCI BOM_POCI BOM_EYE BOM_POS_METHOD BOM_PRES_METHOD NADI_LAT NADI_LON NADI_CAT NADI_WIND NADI_PRES WELLINGTON_LAT WELLINGTON_LON WELLINGTON_WIND WELLINGTON_PRES DS824_LAT DS824_LON DS824_STAGE DS824_WIND DS824_PRES TD9636_LAT TD9636_LON TD9636_STAGE TD9636_WIND TD9636_PRES TD9635_LAT TD9635_LON TD9635_WIND TD9635_PRES TD9635_ROCI NEUMANN_LAT NEUMANN_LON NEUMANN_CLASS NEUMANN_WIND NEUMANN_PRES MLC_LAT MLC_LON MLC_CLASS MLC_WIND MLC_PRES USA_GUST BOM_GUST BOM_GUST_PER REUNION_GUST REUNION_GUST_PER USA_SEAHGT USA_SEARAD_NE USA_SEARAD_SE USA_SEARAD_SW USA_SEARAD_NW STORM_SPEED STORM_DIR
1865287N11303 1865 23 NA NA NOT_NAMED 1865-10-14 06:00:00 TS 10.5000 -57.2000 main 342 309 _____________O -1 10.5000 -57.2000 TS 35 12 269
1865287N11303 1865 23 NA NA NOT_NAMED 1865-10-14 09:00:00 TS 10.4878 -57.8101 main 309 279 _____________P -1 10.4878 -57.8101 TS 37 12 270
1865287N11303 1865 23 NA NA NOT_NAMED 1865-10-14 12:00:00 TS 10.5000 -58.4000 main 279 229 _____________O -1 10.5000 -58.4000 TS 40 11 273
1865287N11303 1865 23 NA NA NOT_NAMED 1865-10-14 15:00:00 TS 10.5499 -58.9574 main 218 164 _____________P -1 10.5499 -58.9574 TS 42 11 275
1865287N11303 1865 23 NA NA NOT_NAMED 1865-10-14 18:00:00 TS 10.6000 -59.5000 main 164 109 _____________O -1 10.6000 -59.5000 TS 45 11 273
1865287N11303 1865 23 NA NA NOT_NAMED 1865-10-14 21:00:00 TS 10.6074 -60.0500 main 98 43 _____________P -1 10.6074 -60.0500 TS 50 11 270
1865287N11303 1865 23 NA NA NOT_NAMED 1865-10-15 00:00:00 TS 10.6000 -60.6000 main 43 0 _____________O -1 10.6000 -60.6000 TS 55 11 269
1865287N11303 1865 23 NA NA NOT_NAMED 1865-10-15 03:00:00 TS 10.5924 -61.1425 main 0 0 _____________P -1 10.5924 -61.1425 TS 55 11 270
1865287N11303 1865 23 NA CS NOT_NAMED 1865-10-15 06:00:00 TS 10.6000 -61.7000 main 11 0 _____________O -1 10.6000 -61.7000 TS 55 11 273
1865287N11303 1865 23 NA CS NOT_NAMED 1865-10-15 09:00:00 TS 10.6500 -62.2999 main 0 0 _____________P -1 10.6500 -62.2999 TS 47 12 275
1865287N11303 1865 23 NA CS NOT_NAMED 1865-10-15 12:00:00 TS 10.7000 -62.9000 main 0 0 _____________O -1 10.7000 -62.9000 TS 40 11 273
1865287N11303 1865 23 NA CS NOT_NAMED 1865-10-15 15:00:00 TS 10.7074 -63.4575 main 11 11 _____________P -1 10.7074 -63.4575 TS 35 11 270
1865287N11303 1865 23 NA CS NOT_NAMED 1865-10-15 18:00:00 TS 10.7000 -64.0000 main 15 11 _____________O -1 10.7000 -64.0000 TD 30 11 270
1865287N11303 1865 23 NA CS NOT_NAMED 1865-10-15 21:00:00 TS 10.6999 -64.5500 main 34 45 _____________P -1 10.6999 -64.5500 TD 30 11 270
1865287N11303 1865 23 NA CS NOT_NAMED 1865-10-16 00:00:00 TS 10.7000 -65.1000 main 67 45 _____________O -1 10.7000 -65.1000 TD 30 11 270
1865287N11303 1865 23 NA CS NOT_NAMED 1865-10-16 03:00:00 TS 10.6922 -65.6201 main 45 11 _____________P -1 10.6922 -65.6201 TD 30 11 270
1865287N11303 1865 23 NA CS NOT_NAMED 1865-10-16 06:00:00 TS 10.7000 -66.2000 main 11 11 _____________O -1 10.7000 -66.2000 TD 30 13 273
1865287N11303 1865 23 NA CS NOT_NAMED 1865-10-16 09:00:00 TS 10.7501 -66.9274 main 22 22 _____________P -1 10.7501 -66.9274 TD 30 15 274
1865287N11303 1865 23 NA CS NOT_NAMED 1865-10-16 12:00:00 TS 10.8000 -67.7000 main 44 0 _____________O -1 10.8000 -67.7000 TD 30 15 272
1865287N11303 1865 23 NA CS NOT_NAMED 1865-10-16 15:00:00 TS 10.8073 -68.4075 main 0 0 _____________P -1 10.8073 -68.4075 TD 30 14 270
1865287N11303 1865 23 NA NA NOT_NAMED 1865-10-16 18:00:00 TS 10.8000 -69.1000 main 0 0 _____________O -1 10.8000 -69.1000 TD 30 14 270
1865287N11303 1865 23 NA NA NOT_NAMED 1865-10-16 21:00:00 TS 10.7998 -69.8000 main 0 0 _____________P -1 10.7998 -69.8000 TD 30 14 270
1865287N11303 1865 23 NA NA NOT_NAMED 1865-10-17 00:00:00 TS 10.8000 -70.5000 main 0 0 _____________O -1 10.8000 -70.5000 TD 30 14 270
1865287N11303 1865 23 NA NA NOT_NAMED 1865-10-17 03:00:00 TS 10.7923 -71.1926 main 0 0 _____________P -1 10.7923 -71.1926 TD 30 14 270
1865287N11303 1865 23 NA NA NOT_NAMED 1865-10-17 06:00:00 TS 10.8000 -71.9000 main 0 0 _____________O -1 10.8000 -71.9000 TD 30 14 272
1865287N11303 1865 23 NA NA NOT_NAMED 1865-10-17 09:00:00 TS 10.8499 -72.6499 main 0 0 _____________P -1 10.8499 -72.6499 TD 30 15 274
1865287N11303 1865 23 NA NA NOT_NAMED 1865-10-17 12:00:00 TS 10.9000 -73.4000 main 0 0 _____________O -1 10.9000 -73.4000 TD 30 14 272
1865287N11303 1865 23 NA NA NOT_NAMED 1865-10-17 15:00:00 TS 10.8998 -74.1076 main 0 0 _____________P -1 10.8998 -74.1076 TD 30 14 270
1865287N11303 1865 23 NA NA NOT_NAMED 1865-10-17 18:00:00 TS 10.9000 -74.8000 main 0 0 _____________O -1 10.9000 -74.8000 TD 30 14 272
1865287N11303 1865 23 NA CS NOT_NAMED 1865-10-17 21:00:00 TS 10.9498 -75.4999 main 24 24 _____________P -1 10.9498 -75.4999 TD 35 28 262
1865287N11303 1865 23 NA CS NOT_NAMED 1865-10-18 00:00:00 TS 10.5000 -77.6000 40 hurdat_atl main 152 105 O____________O hurdat_atl AL071865 9.50000 -80.4000 TS 40 0 11.0000 -76.2000 TS 40 32 258
1865287N11303 1865 23 NA CS NOT_NAMED 1865-10-18 03:00:00 TS 10.2862 -78.6526 main 99 78 P____________P AL071865 9.58750 -80.3900 TS 40 0 10.9849 -76.9152 TS 45 17 260
1865287N11303 1865 23 NA CS NOT_NAMED 1865-10-18 06:00:00 TS 10.2200 -79.2800 40 hurdat_atl main 78 78 O____________O hurdat_atl AL071865 9.70000 -80.4000 TS 40 0 11.0000 -77.6000 TS 50 10 269
1865287N11303 1865 23 NA CS NOT_NAMED 1865-10-18 09:00:00 TS 10.2758 -79.7000 main 89 89 P____________P AL071865 9.85000 -80.4425 TS 40 0 11.1273 -78.2149 TS 55 7 288
1865287N11303 1865 23 NA CS NOT_NAMED 1865-10-18 12:00:00 TS 10.4333 -79.9333 40 hurdat_atl main 103 103 O____________O hurdat_atl AL071865 10.0000 -80.5000 TS 40 0 11.3000 -78.8000 TS 60 5 302
1865287N11303 1865 23 NA CS NOT_NAMED 1865-10-18 15:00:00 TS 10.5524 -80.1592 main 134 134 P____________P AL071865 10.1000 -80.5575 TS 40 0 11.4571 -79.3626 TS 70 5 297
1865287N11303 1865 23 NA CS NOT_NAMED 1865-10-18 18:00:00 TS 10.6667 -80.4000 40 hurdat_atl main 154 154 O____________O hurdat_atl AL071865 10.2000 -80.6000 TS 40 0 11.6000 -80.0000 HU 80 6 296
1865287N11303 1865 23 NA CS NOT_NAMED 1865-10-18 21:00:00 TS 10.8000 -80.6684 main 182 182 P____________P AL071865 10.3500 -80.5925 TS 40 0 11.7001 -80.8202 HU 87 6 296
1865287N11303 1865 23 NA CS NOT_NAMED 1865-10-19 00:00:00 TS 10.9333 -80.9667 40 hurdat_atl main 208 208 O____________O hurdat_atl AL071865 10.5000 -80.6000 TS 40 0 11.8000 -81.7000 HU 95 7 291
1865287N11303 1865 23 NA CS NOT_NAMED 1865-10-19 03:00:00 TS 11.0401 -81.3175 main 211 196 P____________P AL071865 10.6000 -80.6850 TS 40 0 11.9202 -82.5825 HU 102 7 290
1865287N11303 1865 23 NA CS NOT_NAMED 1865-10-19 06:00:00 TS 11.1667 -81.6333 40 hurdat_atl main 203 195 O____________O hurdat_atl AL071865 10.7000 -80.8000 TS 40 0 12.1000 -83.3000 MH 110 6 302
1865287N11303 1865 23 NA CS NOT_NAMED 1865-10-19 09:00:00 TS 11.3565 -81.8325 main 197 174 P____________P AL071865 10.8425 -80.9075 TS 45 0 12.3846 -83.6826 MH 110 5 321
1865287N11303 1865 23 NA CS NOT_NAMED 1865-10-19 12:00:00 TS 11.5667 -81.9667 50 hurdat_atl main 174 163 O____________O hurdat_atl AL071865 11.0000 -81.0000 TS 50 0 12.7000 -83.9000 MH 110 5 327
1865287N11303 1865 23 NA CS NOT_NAMED 1865-10-19 15:00:00 TS 11.7400 -82.0909 main 163 152 P____________P AL071865 11.1350 -81.0500 TS 50 0 12.9500 -84.1726 MH 110 4 328
1865287N11303 1865 23 NA CS NOT_NAMED 1865-10-19 18:00:00 TS 11.9333 -82.2000 50 hurdat_atl main 152 132 O____________O hurdat_atl AL071865 11.3000 -81.1000 TS 50 0 13.2000 -84.4000 MH 110 5 333
1865287N11303 1865 23 NA CS NOT_NAMED 1865-10-19 21:00:00 TS 12.1900 -82.3217 main 132 119 P____________P AL071865 11.5350 -81.2000 TS 50 0 13.5000 -84.5651 MH 92 6 337
1865287N11303 1865 23 NA CS NOT_NAMED 1865-10-20 00:00:00 TS 12.4667 -82.4333 50 hurdat_atl main 119 108 O____________O hurdat_atl AL071865 11.8000 -81.3000 TS 50 0 13.8000 -84.7000 HU 75 6 340
1865287N11303 1865 23 NA CS NOT_NAMED 1865-10-20 03:00:00 TS 12.7117 -82.5192 main 108 97 P____________P AL071865 12.0425 -81.3501 TS 50 0 14.0500 -84.8575 HU 60 5 342
1865287N11303 1865 23 NA CS NOT_NAMED 1865-10-20 06:00:00 TS 12.9667 -82.6000 50 hurdat_atl main 97 86 O____________O hurdat_atl AL071865 12.3000 -81.4000 TS 50 0 14.3000 -85.0000 TS 45 6 342
1865287N11303 1865 23 NA CS NOT_NAMED 1865-10-20 09:00:00 TS 13.2517 -82.6975 main 86 75 P____________P AL071865 12.5775 -81.4925 TS 55 0 14.6000 -85.1075 TS 42 6 342
1865287N11303 1865 23 NA CS NOT_NAMED 1865-10-20 12:00:00 TS 13.5667 -82.8000 60 hurdat_atl main 75 54 O____________O hurdat_atl AL071865 12.9000 -81.6000 TS 60 0 14.9000 -85.2000 TS 40 7 343
1865287N11303 1865 23 NA CS NOT_NAMED 1865-10-20 15:00:00 TS 13.9192 -82.9000 main 54 24 P____________P AL071865 13.3000 -81.7000 TS 60 0 15.1575 -85.3000 TS 42 7 345
1865287N11303 1865 23 NA CS NOT_NAMED 1865-10-20 18:00:00 TS 14.2667 -83.0000 60 hurdat_atl main 21 15 O____________O hurdat_atl AL071865 13.7000 -81.8000 TS 60 0 15.4000 -85.4000 TS 45 7 343
1865287N11303 1865 23 NA CS NOT_NAMED 1865-10-20 21:00:00 TS 14.5450 -83.1001 main 21 10 P____________P AL071865 13.9925 -81.8926 TS 60 0 15.6500 -85.5150 TS 50 6 341
1865287N11303 1865 23 NA CS NOT_NAMED 1865-10-21 00:00:00 TS 14.8333 -83.2000 60 hurdat_atl main 10 0 O____________O hurdat_atl AL071865 14.3000 -82.0000 TS 60 0 15.9000 -85.6000 TS 55 7 343
1865287N11303 1865 23 NA CS NOT_NAMED 1865-10-21 03:00:00 TS 15.2067 -83.3099 main 10 10 P____________P AL071865 14.7425 -82.1574 TS 60 0 16.1350 -85.6151 TS 57 8 346
1865287N11303 1865 23 NA CS NOT_NAMED 1865-10-21 06:00:00 TS 15.6000 -83.4000 60 hurdat_atl main 33 33 O____________O hurdat_atl AL071865 15.2000 -82.3000 TS 60 0 16.4000 -85.6000 TS 60 7 350
1865287N11303 1865 23 NA CS NOT_NAMED 1865-10-21 09:00:00 TS 15.9400 -83.4409 main 64 64 P____________P AL071865 15.5425 -82.3577 TS 65 1 16.7350 -85.6075 TS 60 7 354
1865287N11303 1865 23 NA CS NOT_NAMED 1865-10-21 12:00:00 TS 16.3000 -83.4667 70 hurdat_atl main 94 94 O____________O hurdat_atl AL071865 15.9000 -82.4000 HU 70 1 17.1000 -85.6000 TS 60 8 355
1865287N11303 1865 23 NA CS NOT_NAMED 1865-10-21 15:00:00 TS 16.7350 -83.5142 main 132 132 P____________P AL071865 16.3775 -82.4925 HU 70 1 17.4500 -85.5575 TS 62 9 354
1865287N11303 1865 23 NA CS NOT_NAMED 1865-10-21 18:00:00 TS 17.2000 -83.5667 70 hurdat_atl main 173 173 O____________O hurdat_atl AL071865 16.9000 -82.6000 HU 70 1 17.8000 -85.5000 HU 65 9 354
1865287N11303 1865 23 NA CS NOT_NAMED 1865-10-21 21:00:00 TS 17.6525 -83.6192 main 225 225 P____________P AL071865 17.4000 -82.7001 HU 75 1 18.1575 -85.4574 HU 70 9 354
1865287N11303 1865 23 NA CS NOT_NAMED 1865-10-22 00:00:00 TS 18.1000 -83.6667 80 hurdat_atl main 265 265 O____________O hurdat_atl AL071865 17.9000 -82.8000 HU 80 1 18.5000 -85.4000 HU 75 9 354
1865287N11303 1865 23 NA CS NOT_NAMED 1865-10-22 03:00:00 TS 18.5158 -83.7223 main 308 294 P____________P AL071865 18.3925 -82.9149 HU 80 1 18.7624 -85.3371 HU 77 9 355
1865287N11303 1865 23 NA CS NOT_NAMED 1865-10-22 06:00:00 TS 18.9667 -83.7333 80 hurdat_atl main 284 232 O____________O hurdat_atl AL071865 18.9000 -83.0000 HU 80 1 19.1000 -85.2000 HU 80 10 3
1865287N11303 1865 23 NA CS NOT_NAMED 1865-10-22 09:00:00 TS 19.5108 -83.6634 main 232 162 P____________P AL071865 19.4350 -83.0226 HU 85 2 19.6625 -84.9451 HU 82 12 10
1865287N11303 1865 23 NA CS NOT_NAMED 1865-10-22 12:00:00 TS 20.1000 -83.5333 90 hurdat_atl main 162 108 O____________O hurdat_atl AL071865 20.0000 -83.0000 HU 90 2 20.3000 -84.6000 HU 85 12 12
1865287N11303 1865 23 NA CS NOT_NAMED 1865-10-22 15:00:00 TS 20.6683 -83.3939 main 98 39 P____________P AL071865 20.5775 -82.9723 HU 90 2 20.8498 -84.2370 HU 85 12 15
1865287N11303 1865 23 NA CS NOT_NAMED 1865-10-22 18:00:00 TS 21.2667 -83.2000 90 hurdat_atl main 30 0 O____________O hurdat_atl AL071865 21.2000 -82.9000 HU 90 2 21.4000 -83.8000 HU 85 13 19
1865287N11303 1865 23 NA CS NOT_NAMED 1865-10-22 21:00:00 TS 21.9334 -82.9318 main 11 11 P____________P AL071865 21.9000 -82.7799 HU 85 2 22.0003 -83.2354 HU 85 14 22
1865287N11303 1865 23 NA CS NOT_NAMED 1865-10-23 00:00:00 TS 22.6000 -82.6333 80 975 hurdat_atl main 11 0 O____________O hurdat_atl AL071865 22.6000 -82.6000 HU 80 975 1 22.6000 -82.7000 HU 85 975 14 23
1865287N11303 1865 23 NA NA NOT_NAMED 1865-10-23 03:00:00 TS 23.1852 -82.3644 main 11 11 P____________P AL071865 23.2142 -82.3731 HU 85 2 23.1272 -82.3468 HU 85 13 23
1865287N11303 1865 23 NA NA NOT_NAMED 1865-10-23 06:00:00 TS 23.7667 -82.1000 90 hurdat_atl main 78 78 O____________O hurdat_atl AL071865 23.8000 -82.1000 HU 90 2 23.7000 -82.1000 HU 85 13 21
1865287N11303 1865 23 NA NA NOT_NAMED 1865-10-23 09:00:00 TS 24.4166 -81.8452 main 105 90 P____________P AL071865 24.3999 -81.8217 HU 90 2 24.4499 -81.8922 HU 87 14 20
1865287N11303 1865 23 NA NA NOT_NAMED 1865-10-23 10:00:00 TS 24.6366 -81.7434 90 hurdat_atl main 82 37 O____________P hurdat_atl AL071865 24.6000 -81.7000 L HU 90 2 24.7098 -81.8301 HU 88 15 26
1865287N11303 1865 23 NA GM NOT_NAMED 1865-10-23 12:00:00 TS 25.0667 -81.5000 90 hurdat_atl main 32 10 O____________O hurdat_atl AL071865 25.0000 -81.4000 HU 90 2 25.2000 -81.7000 HU 90 14 28
1865287N11303 1865 23 NA GM NOT_NAMED 1865-10-23 14:00:00 TS 25.4697 -81.2506 90 hurdat_atl main 10 0 O____________P hurdat_atl AL071865 25.4000 -81.1000 L HU 90 2 25.6090 -81.5518 HU 93 15 30
1865287N11303 1865 23 NA NA NOT_NAMED 1865-10-23 15:00:00 TS 25.6943 -81.0947 main 0 0 P____________P AL071865 25.6440 -80.9061 HU 87 2 25.7949 -81.4721 HU 95 17 34
1865287N11303 1865 23 NA NA NOT_NAMED 1865-10-23 18:00:00 TS 26.4333 -80.5333 80 hurdat_atl main 0 0 O____________O hurdat_atl AL071865 26.5000 -80.2000 HU 80 1 26.3000 -81.2000 MH 100 19 36
1865287N11303 1865 23 NA NA NOT_NAMED 1865-10-23 21:00:00 TS 27.1868 -79.8850 main 29 29 P____________P AL071865 27.3450 -79.5176 HU 80 1 26.7603 -80.8682 MH 95 20 38
1865287N11303 1865 23 NA NA NOT_NAMED 1865-10-24 00:00:00 TS 28.0000 -79.1400 80 hurdat_atl main 135 135 O____________O hurdat_atl AL071865 28.2000 -78.8000 HU 80 1 27.2000 -80.5000 HU 90 972 22 40
1865287N11303 1865 23 NA NA NOT_NAMED 1865-10-24 03:00:00 TS 28.9088 -78.2728 main 218 218 P_____________ AL071865 29.0644 -78.0364 HU 80 1 HU 26 42
1865287N11303 1865 23 NA NA NOT_NAMED 1865-10-24 06:00:00 TS 29.9000 -77.2000 80 hurdat_atl main 356 356 O_____________ hurdat_atl AL071865 29.9000 -77.2000 HU 80 1 25 44
1865287N11303 1865 23 NA NA NOT_NAMED 1865-10-24 09:00:00 TS 30.6942 -76.2941 main 388 369 P_____________ AL071865 30.6942 -76.2941 HU 80 1 22 47
1865287N11303 1865 23 NA NA NOT_NAMED 1865-10-24 12:00:00 TS 31.4000 -75.3000 80 hurdat_atl main 375 363 O_____________ hurdat_atl AL071865 31.4000 -75.3000 HU 80 1 22 54
1865287N11303 1865 23 NA NA NOT_NAMED 1865-10-24 15:00:00 TS 31.9865 -74.2430 main 368 365 P_____________ AL071865 31.9865 -74.2430 HU 80 1 22 59
1865287N11303 1865 23 NA NA NOT_NAMED 1865-10-24 18:00:00 TS 32.5000 -73.1000 80 hurdat_atl main 398 398 O_____________ hurdat_atl AL071865 32.5000 -73.1000 HU 80 1 23 63
1865287N11303 1865 23 NA NA NOT_NAMED 1865-10-24 21:00:00 TS 32.9923 -71.8558 main 453 453 P_____________ AL071865 32.9923 -71.8558 HU 75 1 23 65
1865287N11303 1865 23 NA NA NOT_NAMED 1865-10-25 00:00:00 TS 33.5000 -70.6000 70 hurdat_atl main 515 515 O_____________ hurdat_atl AL071865 33.5000 -70.6000 HU 70 1 23 62
1865287N11303 1865 23 NA NA NOT_NAMED 1865-10-25 03:00:00 TS 34.0760 -69.4334 main 586 586 P_____________ AL071865 34.0760 -69.4334 HU 70 1 23 58
1865287N11303 1865 23 NA NA NOT_NAMED 1865-10-25 06:00:00 TS 34.7000 -68.3000 70 hurdat_atl main 663 663 O_____________ hurdat_atl AL071865 34.7000 -68.3000 HU 70 1 23 56
1865287N11303 1865 23 NA NA NOT_NAMED 1865-10-25 09:00:00 TS 35.3410 -67.1631 main 751 718 P_____________ AL071865 35.3410 -67.1631 HU 70 1 23 55
1865287N11303 1865 23 NA NA NOT_NAMED 1865-10-25 12:00:00 TS 36.0000 -66.0000 70 hurdat_atl main 722 715 O_____________ hurdat_atl AL071865 36.0000 -66.0000 HU 70 1 23 56
1865287N11303 1865 23 NA NA NOT_NAMED 1865-10-25 15:00:00 TS 36.6555 -64.7745 main 713 704 P_____________ AL071865 36.6555 -64.7745 HU 70 1 24 57
1865287N11303 1865 23 NA NA NOT_NAMED 1865-10-25 18:00:00 TS 37.3000 -63.5000 70 hurdat_atl main 706 O_____________ hurdat_atl AL071865 37.3000 -63.5000 HU 70 1 24 58

IBTrACS Databaseについて

本データベースは、米国NOAAが公開する1842年以降の世界の熱帯低気圧のベストトラックデータアーカイブInternational Best Track Archive for Climate Stewardship (IBTrACS)を、ウェブで閲覧しやすい形式に変換したものです。

最終更新日:2021-12-06